Flight Track Log - Related Links

Times and Time Zones

All times are in EDT time to prevent confusion due to time zone crossing. See the GPD20 flight status page for this flight to view local times or setup timezone preferences in your user account.

Time Position Orientation Groundspeed Altitude Reporting Facility
EDT Latitude Longitude Course Direction KTS MPH feet Rate Location/Type
Fri 08:37:07 PM 41.3786 -70.8578 271° West 157 181 4,400  Level Boston Center
Fri 08:38:09 PM 41.3833 -70.9128 277° West 169 194 4,500  Climbing Boston Center
Fri 08:39:25 PM 41.3886 -70.9931 275° West 162 186 4,400  Descending Boston Center
Fri 08:40:10 PM 41.3911 -71.0289 275° West 157 181 4,500  Climbing Boston Center
Fri 08:41:00 PM 41.3734 -70.9565 262° West  Level FlightAware Approximate
Fri 08:41:20 PM 41.3922 -71.1064 271° West 170 196 4,400  Level Boston Center
Fri 08:42:21 PM 41.3992 -71.1644 279° West 161 185 4,400 49 Level Boston Center
Fri 08:43:22 PM 41.3997 -71.2253 271° West 164 189 4,500  Climbing Boston Center
Fri 08:44:23 PM 41.4025 -71.2861 274° West 166 191 4,400  Descending Boston Center
Fri 08:45:24 PM 41.4072 -71.3442 276° West 164 189 4,500 50 Climbing Boston Center
Fri 08:46:24 PM 41.4078 -71.4106 271° West 161 185 4,500  Level Boston Center
Fri 08:47:26 PM 41.4106 -71.4742 273° West 166 191 4,500 -52 Level Boston Center
Fri 08:48:20 PM 41.4131 -71.5267 274° West 166 191 4,400 -56 Descending Boston Center
Fri 08:49:14 PM 41.4178 -71.5847 276° West 167 192 4,400  Level Boston Center
Fri 08:50:15 PM 41.4181 -71.6456 270° West 163 188 4,400  Level Boston Center
Fri 08:51:15 PM 41.4206 -71.7064 273° West 170 196 4,400 50 Level Boston Center
Fri 08:52:16 PM 41.4231 -71.7675 273° West 162 186 4,500  Climbing Boston Center
Fri 08:53:10 PM 41.4275 -71.8200 276° West 163 188 4,400 -52 Descending Boston Center
Fri 08:54:11 PM 41.4342 -71.8808 278° West 163 188 4,400  Level Boston Center
Fri 08:55:11 PM 41.4364 -71.9389 273° West 162 186 4,400  Level Boston Center
Fri 08:56:12 PM 41.4389 -71.9997 273° West 167 192 4,400  Level Boston Center
Fri 08:57:13 PM 41.4411 -72.0608 273° West 161 185 4,400 50 Level Boston Center
Fri 08:58:13 PM 41.4433 -72.1189 273° West 164 189 4,500  Climbing Boston Center
Fri 08:59:14 PM 41.4456 -72.1769 273° West 161 185 4,400 -49 Descending Boston Center
Fri 09:00:16 PM 41.4500 -72.2406 275° West 167 192 4,400  Level Boston Center
Fri 09:01:16 PM 41.4542 -72.3017 275° West 164 189 4,400 52 Level Boston Center
Fri 09:02:11 PM 41.4542 -72.3514 270° West 155 178 4,500  Climbing Boston Center
Fri 09:03:55 PM 41.4583 -72.4567 273° West 165 190 4,400 -38 Descending Boston Center
Fri 09:04:49 PM 41.4606 -72.5122 273° West 157 181 4,400  Level Boston Center
Fri 09:05:49 PM 41.4603 -72.5731 270° West 161 185 4,400  Level Boston Center
Fri 09:06:50 PM 41.4625 -72.6311 273° West 161 185 4,400  Level Boston Center
Fri 09:08:00 PM 41.4568 -72.7091 264° West  Level FlightAware Approximate
Fri 09:15:00 PM 41.4667 -73.1333 294° West  Level FlightAware Approximate
Fri 09:16:00 PM 41.4786 -73.1352 294° West  Level Estimated
Fri 09:17:00 PM 41.4786 -73.1352 294° West  Level Estimated
Fri 09:18:00 PM 41.4786 -73.1352 294° West  Level Estimated
Fri 09:19:00 PM 41.4786 -73.1352 294° West  Level Estimated
Fri 09:20:00 PM 41.4786 -73.1352 294° West  Level Estimated
Fri 09:21:00 PM 41.4786 -73.1352 294° West  Level Estimated
Fri 09:22:00 PM 41.4786 -73.1352 294° West  Level Estimated
Fri 09:23:00 PM 41.4786 -73.1352 294° West  Level Estimated
Fri 09:24:00 PM 41.4786 -73.1352 294° West  Level Estimated
Fri 09:25:00 PM 41.4786 -73.1352 294° West  Level Estimated
Fri 09:26:00 PM 41.4786 -73.1352 294° West  Level Estimated
Fri 09:27:00 PM 41.4786 -73.1352 294° West  Level Estimated
Fri 09:28:00 PM 41.4786 -73.1352 294° West  Level Estimated
Fri 09:29:00 PM 41.4786 -73.1352 294° West  Level Estimated
Fri 09:30:00 PM 41.4786 -73.1352 294° West  Level Estimated
Fri 09:31:00 PM 41.4786 -73.1352 294° West  Level Estimated

Login

Don't have an account? Register now (free) for customized features, flight alerts, and more!